createdAt,value
2023-03-22T00:02:43.994Z,100767.16
2023-03-22T00:05:31.032Z,100762.84
2023-03-22T00:08:16.380Z,100763.63
2023-03-22T00:11:01.889Z,100768.28
2023-03-22T00:13:49.688Z,100759.63
2023-03-22T00:16:34.790Z,100761.75
2023-03-22T00:19:21.180Z,100755.25
2023-03-22T00:22:13.993Z,100748.47
2023-03-22T00:24:59.951Z,100751.56
2023-03-22T00:27:50.828Z,100757.50
2023-03-22T00:30:36.341Z,100756.25
2023-03-22T00:33:24.850Z,100752.16
2023-03-22T00:36:20.064Z,100751.50
2023-03-22T00:39:15.049Z,100748.50
2023-03-22T00:42:02.442Z,100752.38
2023-03-22T00:44:47.813Z,100746.78
2023-03-22T00:47:32.672Z,100743.75
2023-03-22T00:50:18.866Z,100738.72
2023-03-22T00:53:04.693Z,100745.69
2023-03-22T00:55:51.575Z,100741.78
2023-03-22T00:58:48.545Z,100734.66
2023-03-22T01:01:35.505Z,100732.03
2023-03-22T01:04:27.309Z,100730.31
2023-03-22T01:07:20.276Z,100746.91
2023-03-22T01:10:10.938Z,100746.06
2023-03-22T01:12:59.225Z,100746.16
2023-03-22T01:15:48.455Z,100751.38
2023-03-22T01:18:36.395Z,100739.09
2023-03-22T01:21:24.240Z,100727.97
2023-03-22T01:24:10.616Z,100725.97
2023-03-22T01:29:58.940Z,100736.72
2023-03-22T01:32:48.881Z,100728.72
2023-03-22T01:36:06.878Z,100723.28
2023-03-22T01:42:06.245Z,100719.38
2023-03-22T01:45:13.942Z,100719.09
2023-03-22T01:48:20.514Z,100709.31
2023-03-22T01:51:29.078Z,100704.28
2023-03-22T01:58:05.880Z,100702.25
2023-03-22T02:01:19.108Z,100703.06
2023-03-22T02:04:23.973Z,100693.94
2023-03-22T02:10:29.347Z,100688.13
2023-03-22T02:14:00.585Z,100682.66
2023-03-22T02:17:36.469Z,100684.66
2023-03-22T02:21:23.721Z,100680.50
2023-03-22T02:24:52.479Z,100677.22
2023-03-22T02:28:20.151Z,100681.38
2023-03-22T02:31:31.629Z,100684.97
2023-03-22T02:35:10.450Z,100687.06
2023-03-22T02:38:49.399Z,100687.25
2023-03-22T02:42:35.558Z,100694.47
2023-03-22T02:46:00.092Z,100689.97
2023-03-22T02:49:10.329Z,100681.34
2023-03-22T02:52:21.376Z,100677.19
2023-03-22T02:55:25.963Z,100675.28
2023-03-22T03:01:58.591Z,100679.53
2023-03-22T03:04:51.536Z,100672.31
2023-03-22T03:07:43.368Z,100671.34
2023-03-22T03:10:32.823Z,100664.75
2023-03-22T03:13:20.070Z,100671.88
2023-03-22T03:16:10.742Z,100672.47
2023-03-22T03:19:34.177Z,100671.09
2023-03-22T03:22:56.779Z,100667.44
2023-03-22T03:26:19.084Z,100664.34
2023-03-22T03:29:25.021Z,100662.94
2023-03-22T03:32:28.541Z,100661.84
2023-03-22T03:35:22.973Z,100668.22
2023-03-22T03:38:28.183Z,100677.63
2023-03-22T03:41:29.346Z,100682.44
2023-03-22T03:44:19.845Z,100684.38
2023-03-22T03:47:09.631Z,100680.06
2023-03-22T03:50:01.620Z,100673.97
2023-03-22T03:52:52.188Z,100673.03
2023-03-22T03:56:01.474Z,100670.19
2023-03-22T03:58:55.547Z,100674.50
2023-03-22T04:01:50.661Z,100670.28
2023-03-22T04:05:00.225Z,100672.19
2023-03-22T04:07:59.308Z,100665.94
2023-03-22T04:11:38.434Z,100662.13
2023-03-22T04:14:28.969Z,100670.00
2023-03-22T04:17:26.476Z,100669.03
2023-03-22T04:20:15.325Z,100671.94
2023-03-22T04:23:16.406Z,100677.38
2023-03-22T04:26:07.051Z,100674.81
2023-03-22T04:29:21.181Z,100672.56
2023-03-22T04:32:19.592Z,100667.44
2023-03-22T04:35:06.963Z,100680.41
2023-03-22T04:37:57.281Z,100670.63
2023-03-22T04:40:47.138Z,100674.16
2023-03-22T04:43:39.928Z,100675.13
2023-03-22T04:46:36.084Z,100678.47
2023-03-22T04:49:24.374Z,100671.47
2023-03-22T04:55:12.674Z,100670.81
2023-03-22T04:58:07.411Z,100673.38
2023-03-22T05:00:56.760Z,100663.91
2023-03-22T05:03:48.620Z,100659.91
2023-03-22T05:06:41.971Z,100651.88
2023-03-22T05:09:45.971Z,100646.91
2023-03-22T05:12:37.045Z,100650.91
2023-03-22T05:15:42.792Z,100639.56
2023-03-22T05:18:31.275Z,100637.97
2023-03-22T05:21:22.602Z,100636.19
2023-03-22T05:24:17.047Z,100631.88
2023-03-22T05:27:08.764Z,100645.66
2023-03-22T05:29:59.127Z,100642.13
2023-03-22T05:33:04.731Z,100634.59
2023-03-22T05:35:55.219Z,100634.56
2023-03-22T05:38:54.612Z,100636.53
2023-03-22T05:41:51.828Z,100640.84
2023-03-22T05:44:59.082Z,100641.81
2023-03-22T05:47:59.890Z,100640.53
2023-03-22T05:51:07.313Z,100640.22
2023-03-22T05:53:56.236Z,100639.25
2023-03-22T05:57:09.870Z,100630.63
2023-03-22T06:00:11.552Z,100630.09
2023-03-22T06:03:03.998Z,100628.69
2023-03-22T06:06:18.486Z,100632.38
2023-03-22T06:09:17.515Z,100632.19
2023-03-22T06:12:10.357Z,100624.03
2023-03-22T06:14:56.877Z,100624.00
2023-03-22T06:18:06.995Z,100629.44
2023-03-22T06:21:02.096Z,100618.22
2023-03-22T06:23:48.788Z,100620.09
2023-03-22T06:26:40.613Z,100612.69
2023-03-22T06:29:28.643Z,100619.56
2023-03-22T06:32:36.410Z,100617.63
2023-03-22T06:35:23.881Z,100623.72
2023-03-22T06:38:10.797Z,100625.34
2023-03-22T06:41:01.041Z,100621.91
2023-03-22T06:43:51.388Z,100625.94
2023-03-22T06:46:59.099Z,100626.50
2023-03-22T06:50:05.265Z,100630.03
2023-03-22T06:53:22.133Z,100642.09
2023-03-22T06:56:17.544Z,100640.03
2023-03-22T06:59:28.321Z,100643.84
2023-03-22T07:02:16.567Z,100641.09
2023-03-22T07:05:22.305Z,100633.56
2023-03-22T07:08:14.065Z,100634.31
2023-03-22T07:11:08.403Z,100633.69
2023-03-22T07:14:01.065Z,100636.97
2023-03-22T07:20:06.295Z,100638.22
2023-03-22T07:22:54.415Z,100636.19
2023-03-22T07:25:43.494Z,100637.38
2023-03-22T07:28:46.284Z,100634.91
2023-03-22T07:31:36.675Z,100635.78
2023-03-22T07:34:42.540Z,100629.00
2023-03-22T07:37:35.978Z,100633.25
2023-03-22T07:40:26.452Z,100625.78
2023-03-22T07:43:13.616Z,100623.44
2023-03-22T07:46:15.117Z,100622.91
2023-03-22T07:49:32.752Z,100624.03
2023-03-22T07:52:25.785Z,100616.53
2023-03-22T07:55:15.112Z,100622.56
2023-03-22T08:01:09.633Z,100616.91
2023-03-22T08:04:11.099Z,100618.91
2023-03-22T08:07:15.100Z,100611.28
2023-03-22T08:10:19.716Z,100610.72
2023-03-22T08:13:09.439Z,100614.50
2023-03-22T08:15:58.310Z,100607.63
2023-03-22T08:18:45.350Z,100600.28
2023-03-22T08:21:32.750Z,100601.25
2023-03-22T08:24:19.812Z,100604.44
2023-03-22T08:27:20.352Z,100593.78
2023-03-22T08:30:10.256Z,100597.53
2023-03-22T08:33:20.160Z,100591.16
2023-03-22T08:36:20.893Z,100591.28
2023-03-22T08:39:15.434Z,100589.56
2023-03-22T08:42:32.661Z,100587.66
2023-03-22T08:45:24.232Z,100582.19
2023-03-22T08:48:18.299Z,100572.06
2023-03-22T08:51:24.714Z,100582.19
2023-03-22T08:54:29.318Z,100577.03
2023-03-22T08:57:38.669Z,100571.91
2023-03-22T09:00:48.518Z,100571.91
2023-03-22T09:03:42.962Z,100571.31
2023-03-22T09:06:27.705Z,100571.66
2023-03-22T09:09:19.042Z,100566.59
2023-03-22T09:12:10.513Z,100549.00
2023-03-22T09:14:57.830Z,100545.16
2023-03-22T09:17:45.409Z,100549.66
2023-03-22T09:20:31.400Z,100530.97
2023-03-22T09:23:16.536Z,100528.63
2023-03-22T09:26:05.624Z,100526.63
2023-03-22T09:28:50.624Z,100517.31
2023-03-22T09:31:36.956Z,100524.56
2023-03-22T09:34:42.213Z,100518.47
2023-03-22T09:37:30.531Z,100515.63
2023-03-22T09:40:17.881Z,100516.59
2023-03-22T09:43:08.174Z,100515.34
2023-03-22T09:45:54.311Z,100524.66
2023-03-22T09:48:42.895Z,100518.75
2023-03-22T09:51:47.851Z,100520.38
2023-03-22T09:54:37.955Z,100523.44
2023-03-22T09:57:37.990Z,100519.09
2023-03-22T10:00:48.263Z,100524.50
2023-03-22T10:04:13.135Z,100522.50
2023-03-22T10:07:51.451Z,100525.22
2023-03-22T10:10:41.933Z,100517.88
2023-03-22T10:13:48.647Z,100531.34
2023-03-22T10:16:35.739Z,100522.28
2023-03-22T10:19:35.760Z,100502.75
2023-03-22T10:22:30.182Z,100499.41
2023-03-22T10:25:22.321Z,100502.63
2023-03-22T10:28:29.008Z,100500.63
2023-03-22T10:31:21.368Z,100505.06
2023-03-22T10:34:20.558Z,100498.78
2023-03-22T10:37:12.118Z,100494.53
2023-03-22T10:40:02.249Z,100484.03
2023-03-22T10:42:55.800Z,100479.44
2023-03-22T10:45:40.447Z,100480.22
2023-03-22T10:48:39.603Z,100480.53
2023-03-22T10:51:49.635Z,100479.22
2023-03-22T10:54:33.393Z,100464.56
2023-03-22T10:57:17.502Z,100463.38
2023-03-22T11:00:07.834Z,100467.31
2023-03-22T11:02:58.424Z,100459.41
2023-03-22T11:05:42.083Z,100462.44
2023-03-22T11:08:25.570Z,100459.66
2023-03-22T11:11:35.041Z,100458.28
2023-03-22T11:14:28.225Z,100461.94
2023-03-22T11:17:25.896Z,100451.41
2023-03-22T11:20:19.446Z,100452.06
2023-03-22T11:23:06.971Z,100439.91
2023-03-22T11:25:53.083Z,100427.34
2023-03-22T11:28:48.003Z,100442.16
2023-03-22T11:32:00.185Z,100427.44
2023-03-22T11:34:46.549Z,100432.41
2023-03-22T11:37:30.063Z,100428.31
2023-03-22T11:40:24.748Z,100426.19
2023-03-22T11:43:22.611Z,100427.16
2023-03-22T11:46:08.978Z,100436.63
2023-03-22T11:49:01.469Z,100423.03
2023-03-22T11:51:45.965Z,100429.91
2023-03-22T11:54:35.611Z,100426.19
2023-03-22T11:57:30.843Z,100426.19
2023-03-22T12:00:24.804Z,100418.03
2023-03-22T12:03:21.792Z,100408.91
2023-03-22T12:06:25.474Z,100418.31
2023-03-22T12:09:41.773Z,100406.91
2023-03-22T12:12:32.034Z,100405.47
2023-03-22T12:15:29.239Z,100392.38
2023-03-22T12:18:41.603Z,100391.38
2023-03-22T12:21:25.128Z,100387.41
2023-03-22T12:24:26.261Z,100383.13
2023-03-22T12:27:23.537Z,100383.72
2023-03-22T12:30:23.685Z,100385.78
2023-03-22T12:33:26.644Z,100374.31
2023-03-22T12:36:20.583Z,100372.44
2023-03-22T12:39:09.556Z,100368.41
2023-03-22T12:42:00.481Z,100362.22
2023-03-22T12:44:55.504Z,100356.66
2023-03-22T12:48:01.042Z,100356.25
2023-03-22T12:51:05.604Z,100345.03
2023-03-22T12:53:55.601Z,100339.47
2023-03-22T12:56:44.966Z,100331.97
2023-03-22T12:59:32.094Z,100334.78
2023-03-22T13:02:32.742Z,100333.09
2023-03-22T13:05:18.439Z,100334.94
2023-03-22T13:08:05.504Z,100335.88
2023-03-22T13:11:04.113Z,100332.00
2023-03-22T13:13:48.077Z,100323.28
2023-03-22T13:16:56.272Z,100329.97
2023-03-22T13:19:51.518Z,100334.53
2023-03-22T13:22:38.225Z,100323.91
2023-03-22T13:25:34.356Z,100326.56
2023-03-22T13:28:29.604Z,100331.63
2023-03-22T13:31:45.389Z,100321.69
2023-03-22T13:34:52.098Z,100324.16
2023-03-22T13:37:49.524Z,100318.94
2023-03-22T13:40:49.800Z,100322.31
2023-03-22T13:43:39.072Z,100313.09
2023-03-22T13:46:22.613Z,100317.78
2023-03-22T13:49:36.946Z,100307.16
2023-03-22T13:52:29.283Z,100306.53
2023-03-22T13:55:41.716Z,100299.13
2023-03-22T13:58:43.828Z,100307.44
2023-03-22T14:01:35.306Z,100304.00
2023-03-22T14:04:43.511Z,100305.16
2023-03-22T14:07:44.351Z,100307.53
2023-03-22T14:10:44.731Z,100296.53
2023-03-22T14:13:42.577Z,100297.31
2023-03-22T14:17:09.457Z,100292.81
2023-03-22T14:19:53.442Z,100295.59
2023-03-22T14:53:59.832Z,100279.00
2023-03-22T14:56:46.738Z,100290.25
2023-03-22T14:59:30.623Z,100289.63
2023-03-22T15:02:42.745Z,100281.38
2023-03-22T15:05:34.567Z,100280.97
2023-03-22T15:08:18.517Z,100275.44
2023-03-22T15:11:06.552Z,100274.50
2023-03-22T15:13:52.417Z,100272.19
2023-03-22T15:16:39.721Z,100279.69
2023-03-22T15:19:25.066Z,100261.94
2023-03-22T15:22:19.984Z,100261.03
2023-03-22T15:25:06.044Z,100271.56
2023-03-22T15:27:51.016Z,100268.47
2023-03-22T15:30:36.988Z,100266.25
2023-03-22T15:33:34.795Z,100265.53
2023-03-22T15:36:19.908Z,100259.31
2023-03-22T15:39:35.147Z,100260.44
2023-03-22T15:42:27.028Z,100254.03
2023-03-22T15:45:21.129Z,100252.91
2023-03-22T15:48:11.980Z,100252.56
2023-03-22T15:50:56.086Z,100251.28
2023-03-22T15:53:41.190Z,100254.09
2023-03-22T15:56:40.291Z,100256.53
2023-03-22T15:59:29.657Z,100255.72
2023-03-22T16:02:30.574Z,100261.84
2023-03-22T16:05:14.171Z,100266.84
2023-03-22T16:07:58.968Z,100268.94
2023-03-22T16:10:45.321Z,100259.19
2023-03-22T16:13:31.376Z,100260.47
2023-03-22T16:16:19.280Z,100267.34
2023-03-22T16:19:02.879Z,100269.72
2023-03-22T16:21:46.564Z,100277.19
2023-03-22T16:24:30.135Z,100269.03
2023-03-22T16:27:19.008Z,100269.50
2023-03-22T16:30:02.529Z,100278.72
2023-03-22T16:32:48.772Z,100277.19
2023-03-22T16:35:33.932Z,100284.56
2023-03-22T16:38:18.226Z,100276.91
2023-03-22T16:41:06.204Z,100289.00
2023-03-22T16:43:50.600Z,100285.31
2023-03-22T16:46:36.550Z,100286.38
2023-03-22T16:49:20.175Z,100292.19
2023-03-22T16:52:04.158Z,100295.22
2023-03-22T16:54:50.415Z,100298.09
2023-03-22T16:57:34.062Z,100297.09
2023-03-22T17:00:21.602Z,100302.81
2023-03-22T17:03:09.682Z,100310.81
2023-03-22T17:05:53.295Z,100302.00
2023-03-22T17:08:36.854Z,100309.88
2023-03-22T17:11:25.094Z,100317.31
2023-03-22T17:14:13.189Z,100319.63
2023-03-22T17:16:59.528Z,100313.69
2023-03-22T17:19:44.918Z,100316.91
2023-03-22T17:22:29.246Z,100329.69
2023-03-22T17:25:24.431Z,100322.72
2023-03-22T17:28:12.212Z,100321.34
2023-03-22T17:30:56.281Z,100322.25
2023-03-22T17:33:39.822Z,100320.59
2023-03-22T17:36:23.770Z,100328.38
2023-03-22T17:39:20.978Z,100319.03
2023-03-22T17:42:15.705Z,100327.00
2023-03-22T17:44:59.740Z,100325.00
2023-03-22T17:47:44.849Z,100323.84
2023-03-22T17:50:32.032Z,100332.44
2023-03-22T17:53:35.428Z,100329.00
2023-03-22T17:59:08.172Z,100326.59
2023-03-22T18:01:51.680Z,100331.34
2023-03-22T18:04:37.886Z,100339.34
2023-03-22T18:07:21.830Z,100341.56
2023-03-22T18:10:07.926Z,100334.09
2023-03-22T18:12:53.229Z,100334.66
2023-03-22T18:15:36.846Z,100333.34
2023-03-22T18:18:20.462Z,100334.56
2023-03-22T18:21:06.361Z,100319.66
2023-03-22T18:23:49.943Z,100335.00
2023-03-22T18:29:22.022Z,100341.63
2023-03-22T18:32:17.304Z,100343.41
2023-03-22T18:35:02.498Z,100351.47
2023-03-22T18:37:46.098Z,100350.38
2023-03-22T18:41:10.006Z,100349.09
2023-03-22T18:43:36.882Z,100356.25
2023-03-22T18:46:21.073Z,100355.88
2023-03-22T18:49:04.629Z,100355.16
2023-03-22T18:52:19.065Z,100350.53
2023-03-22T18:55:01.538Z,100350.00
2023-03-22T18:57:57.375Z,100356.94
2023-03-22T19:00:40.962Z,100355.22
2023-03-22T19:03:24.833Z,100353.84
2023-03-22T19:06:16.270Z,100362.09
2023-03-22T19:08:59.883Z,100356.28
2023-03-22T19:11:43.823Z,100363.63
2023-03-22T19:15:14.738Z,100362.84
2023-03-22T19:17:33.189Z,100367.75
2023-03-22T19:20:16.935Z,100357.53
2023-03-22T19:23:00.644Z,100346.78
2023-03-22T19:25:44.287Z,100349.44
2023-03-22T19:28:27.847Z,100338.91
2023-03-22T19:31:11.470Z,100333.69
2023-03-22T19:33:56.575Z,100332.31
2023-03-22T19:36:42.231Z,100328.75
2023-03-22T19:39:26.384Z,100332.97
2023-03-22T19:42:10.604Z,100322.72
2023-03-22T19:44:55.200Z,100328.94
2023-03-22T19:47:52.106Z,100328.34
2023-03-22T19:50:45.622Z,100319.25
2023-03-22T19:54:18.353Z,100325.69
2023-03-22T19:56:40.345Z,100315.09
2023-03-22T19:59:24.019Z,100320.97
2023-03-22T20:02:07.570Z,100321.25
2023-03-22T20:04:52.759Z,100322.53
2023-03-22T20:07:36.918Z,100326.91
2023-03-22T20:10:22.494Z,100324.00
2023-03-22T20:13:06.217Z,100317.25
2023-03-22T20:15:49.825Z,100315.78
2023-03-22T20:18:33.663Z,100321.22
2023-03-22T20:21:17.340Z,100315.06
2023-03-22T20:24:02.570Z,100318.91
2023-03-22T20:26:46.167Z,100311.75
2023-03-22T20:29:29.783Z,100314.19
2023-03-22T20:32:13.373Z,100312.50
2023-03-22T20:34:57.061Z,100302.44
2023-03-22T20:37:41.669Z,100308.81
2023-03-22T20:40:25.262Z,100309.41
2023-03-22T20:43:08.866Z,100307.00
2023-03-22T20:45:53.011Z,100301.75
2023-03-22T20:48:36.951Z,100299.69
2023-03-22T20:51:21.425Z,100296.19
2023-03-22T20:54:05.334Z,100291.50
2023-03-22T20:56:48.943Z,100294.84
2023-03-22T20:59:35.777Z,100290.25
2023-03-22T21:02:20.172Z,100286.25
2023-03-22T21:05:04.252Z,100283.94
2023-03-22T21:07:48.629Z,100283.47
2023-03-22T21:10:32.471Z,100289.22
2023-03-22T21:13:16.146Z,100285.75
2023-03-22T21:15:59.881Z,100282.34
2023-03-22T21:18:44.647Z,100281.22
2023-03-22T21:21:28.275Z,100281.47
2023-03-22T21:24:12.042Z,100279.50
2023-03-22T21:26:55.568Z,100276.59
2023-03-22T21:29:39.201Z,100275.13
2023-03-22T21:32:24.014Z,100279.63
2023-03-22T21:35:08.990Z,100285.47
2023-03-22T21:37:58.219Z,100282.03
2023-03-22T21:40:50.314Z,100282.81
2023-03-22T21:43:38.143Z,100265.25
2023-03-22T21:46:24.193Z,100268.94
2023-03-22T21:49:09.416Z,100265.56
2023-03-22T21:51:55.323Z,100270.75
2023-03-22T21:54:39.284Z,100264.91
2023-03-22T21:57:25.213Z,100263.84
2023-03-22T22:00:09.810Z,100269.19
2023-03-22T22:02:53.333Z,100268.31
2023-03-22T22:05:39.123Z,100271.63
2023-03-22T22:08:24.367Z,100260.13
2023-03-22T22:11:10.041Z,100269.75
2023-03-22T22:13:53.553Z,100247.94
2023-03-22T22:16:38.193Z,100252.50
2023-03-22T22:19:21.736Z,100244.94
2023-03-22T22:22:05.427Z,100248.97
2023-03-22T22:24:48.912Z,100245.16
2023-03-22T22:27:32.872Z,100244.88
2023-03-22T22:30:18.287Z,100239.47
2023-03-22T22:33:03.905Z,100228.84
2023-03-22T22:35:47.953Z,100225.41
2023-03-22T22:38:31.465Z,100226.97
2023-03-22T22:41:17.848Z,100226.84
2023-03-22T22:44:01.457Z,100227.78
2023-03-22T22:46:45.153Z,100226.63
2023-03-22T22:49:31.939Z,100219.59
2023-03-22T22:52:15.585Z,100227.56
2023-03-22T22:55:13.144Z,100222.31
2023-03-22T22:57:57.620Z,100225.41
2023-03-22T23:00:41.582Z,100224.22
2023-03-22T23:03:28.838Z,100215.94
2023-03-22T23:06:21.864Z,100233.31
2023-03-22T23:09:06.025Z,100234.22
2023-03-22T23:11:49.565Z,100220.69
2023-03-22T23:14:33.592Z,100220.78
2023-03-22T23:17:19.883Z,100214.94
2023-03-22T23:20:13.252Z,100212.03
2023-03-22T23:22:56.734Z,100206.13
2023-03-22T23:25:40.518Z,100202.91
2023-03-22T23:28:26.809Z,100194.22
2023-03-22T23:31:15.813Z,100194.75
2023-03-22T23:34:04.197Z,100206.13
2023-03-22T23:36:52.042Z,100196.78
2023-03-22T23:39:35.580Z,100194.22
2023-03-22T23:42:19.708Z,100193.59
2023-03-22T23:45:04.154Z,100202.00
2023-03-22T23:47:49.132Z,100195.16
2023-03-22T23:50:34.126Z,100203.13
2023-03-22T23:53:17.782Z,100202.84
2023-03-22T23:56:01.744Z,100196.28
2023-03-22T23:58:46.938Z,100191.50
